Time;durP1;ratioP1;P1;durP2;ratioP2;P2;SDS_P1;SDS_P2;PMS_P1;PMS_P2;Temp;Humidity;BMP_temperature;BMP_pressure;BME280_temperature;BME280_humidity;BME280_pressure;Samples;Min_cycle;Max_cycle;Signal;HPM_P1;HPM_P2
2023/04/22 00:02:29;;;;;;;29.37;18.93;;;;;6.60;100250.00;;;;9858653;30;20244;-87
2023/04/22 00:07:32;;;;;;;30.70;20.57;;;;;6.70;100249.00;;;;9837864;30;20285;-86
2023/04/22 00:12:34;;;;;;;32.67;22.50;;;;;6.70;100255.00;;;;9871645;30;20221;-85
2023/04/22 00:17:36;;;;;;;32.43;21.57;;;;;6.80;100257.00;;;;9835733;30;20229;-86
2023/04/22 00:22:38;;;;;;;33.57;21.90;;;;;6.80;100256.00;;;;9824922;30;20328;-85
2023/04/22 00:27:40;;;;;;;29.00;19.77;;;;;6.70;100254.00;;;;9865824;29;20255;-84
2023/04/22 00:32:42;;;;;;;28.73;20.07;;;;;6.70;100247.00;;;;9880835;30;20275;-86
2023/04/22 00:37:44;;;;;;;30.10;19.90;;;;;6.60;100241.00;;;;9881054;30;20787;-85
2023/04/22 00:42:49;;;;;;;31.20;20.43;;;;;6.60;100238.00;;;;9864716;30;20236;-85
2023/04/22 00:47:51;;;;;;;37.70;22.57;;;;;6.60;100244.00;;;;9869920;30;20220;-85
2023/04/22 00:52:53;;;;;;;31.13;21.00;;;;;6.50;100246.00;;;;9862691;30;20235;-87
2023/04/22 00:57:59;;;;;;;27.97;20.63;;;;;6.40;100240.00;;;;9865975;30;20298;-86
2023/04/22 01:03:01;;;;;;;28.93;19.97;;;;;6.30;100236.00;;;;9828493;30;20245;-83
2023/04/22 01:08:04;;;;;;;32.87;20.83;;;;;6.20;100231.00;;;;9828027;30;20271;-82
2023/04/22 01:13:07;;;;;;;30.80;20.63;;;;;6.20;100222.00;;;;9798804;30;20286;-83
2023/04/22 01:18:09;;;;;;;34.93;23.20;;;;;6.20;100224.00;;;;9815866;30;20251;-82
2023/04/22 01:23:21;;;;;;;36.37;23.17;;;;;6.30;100218.00;;;;9849199;30;20247;-82
2023/04/22 01:28:24;;;;;;;34.83;22.47;;;;;6.30;100232.00;;;;9826854;30;20264;-82
2023/04/22 01:33:28;;;;;;;34.73;22.40;;;;;6.30;100227.00;;;;9829118;30;20262;-82
2023/04/22 01:38:32;;;;;;;29.63;21.27;;;;;6.20;100223.00;;;;9824844;30;20243;-82
2023/04/22 01:43:35;;;;;;;28.43;20.40;;;;;6.10;100219.00;;;;9812465;30;20276;-82
2023/04/22 01:48:37;;;;;;;29.43;20.87;;;;;6.10;100213.00;;;;9846071;30;20228;-82
2023/04/22 01:53:40;;;;;;;31.50;21.10;;;;;6.10;100215.00;;;;9843381;30;20228;-82
2023/04/22 01:58:42;;;;;;;35.73;24.07;;;;;6.10;100210.00;;;;9816861;30;20782;-82
2023/04/22 02:03:43;;;;;;;41.20;25.27;;;;;6.20;100222.00;;;;9833923;30;20232;-82
2023/04/22 02:08:47;;;;;;;38.10;25.37;;;;;6.20;100221.00;;;;9834342;30;20236;-83
2023/04/22 02:13:49;;;;;;;38.00;24.00;;;;;6.20;100225.00;;;;9833317;30;20243;-83
2023/04/22 02:18:52;;;;;;;39.77;24.53;;;;;6.20;100221.00;;;;9848502;30;20306;-83
2023/04/22 02:23:53;;;;;;;34.83;23.57;;;;;6.20;100227.00;;;;9818573;30;20950;-82
2023/04/22 02:28:56;;;;;;;39.23;24.37;;;;;6.20;100218.00;;;;9817603;30;20311;-82
2023/04/22 02:33:59;;;;;;;36.30;23.30;;;;;6.20;100216.00;;;;9862999;30;20235;-82
2023/04/22 02:39:02;;;;;;;32.40;22.20;;;;;6.20;100215.00;;;;9848080;30;20232;-82
2023/04/22 02:44:05;;;;;;;39.77;24.73;;;;;6.20;100211.00;;;;9803767;30;20239;-82
2023/04/22 02:49:07;;;;;;;33.50;20.87;;;;;6.20;100201.00;;;;9820273;30;20322;-82
2023/04/22 02:54:09;;;;;;;30.97;20.27;;;;;6.10;100198.00;;;;9833101;30;20282;-82
2023/04/22 02:59:11;;;;;;;34.47;20.93;;;;;6.00;100185.00;;;;9868775;30;20238;-82
2023/04/22 03:04:14;;;;;;;32.73;21.23;;;;;6.00;100189.00;;;;9839651;30;20396;-82
2023/04/22 03:09:16;;;;;;;31.37;20.43;;;;;5.90;100175.00;;;;9848856;30;20228;-83
2023/04/22 03:14:19;;;;;;;32.40;20.67;;;;;5.90;100166.00;;;;9838012;30;20323;-82
2023/04/22 03:19:21;;;;;;;37.07;23.03;;;;;5.90;100163.00;;;;9857853;30;20232;-82
2023/04/22 03:24:23;;;;;;;37.63;23.93;;;;;5.90;100156.00;;;;9837553;30;20248;-81
2023/04/22 03:29:27;;;;;;;34.93;22.93;;;;;5.90;100155.00;;;;9819056;30;20322;-82
2023/04/22 03:34:30;;;;;;;47.30;27.17;;;;;6.00;100158.00;;;;9859899;30;20234;-82
2023/04/22 03:39:32;;;;;;;51.03;29.87;;;;;6.10;100155.00;;;;9837897;30;20323;-82
2023/04/22 03:44:35;;;;;;;47.40;29.17;;;;;6.10;100147.00;;;;9845772;30;20269;-82
2023/04/22 03:49:37;;;;;;;37.70;24.37;;;;;6.10;100151.00;;;;9841429;30;20225;-81
2023/04/22 03:54:40;;;;;;;35.47;22.70;;;;;6.00;100144.00;;;;9859807;30;20232;-82
2023/04/22 03:59:42;;;;;;;37.77;24.33;;;;;6.00;100147.00;;;;9823491;30;20282;-82
2023/04/22 04:04:46;;;;;;;46.07;28.43;;;;;6.00;100146.00;;;;9815710;30;20279;-81
2023/04/22 04:09:49;;;;;;;48.50;28.40;;;;;6.10;100144.00;;;;9815605;30;20326;-82
2023/04/22 04:14:52;;;;;;;52.30;30.53;;;;;6.20;100134.00;;;;9852673;30;20228;-81
2023/04/22 04:19:55;;;;;;;43.70;29.07;;;;;6.20;100139.00;;;;9835352;30;20225;-81
2023/04/22 04:24:57;;;;;;;52.50;30.40;;;;;6.20;100127.00;;;;9866238;30;20247;-81
2023/04/22 04:30:05;;;;;;;53.57;30.93;;;;;6.20;100126.00;;;;9841937;30;20232;-82
2023/04/22 04:35:15;;;;;;;51.13;31.20;;;;;6.20;100139.00;;;;9845241;30;20232;-81
2023/04/22 04:40:22;;;;;;;55.33;30.50;;;;;6.30;100133.00;;;;9833673;30;20231;-82
2023/04/22 04:45:51;;;;;;;52.70;31.50;;;;;6.40;100140.00;;;;9839397;30;20375;-81
2023/04/22 04:51:00;;;;;;;48.70;30.27;;;;;6.40;100135.00;;;;9850174;30;20461;-81
2023/04/22 04:56:06;;;;;;;44.97;28.43;;;;;6.50;100133.00;;;;9835268;30;20243;-81
2023/04/22 05:01:09;;;;;;;49.37;28.77;;;;;6.50;100119.00;;;;9848929;30;20366;-81
2023/04/22 05:06:12;;;;;;;50.97;28.23;;;;;6.50;100116.00;;;;9782541;30;20715;-81
2023/04/22 05:11:19;;;;;;;48.20;28.47;;;;;6.60;100108.00;;;;9829192;30;20235;-81
2023/04/22 05:16:25;;;;;;;55.77;32.93;;;;;6.80;100119.00;;;;9838962;30;20255;-82
2023/04/22 05:21:27;;;;;;;57.37;34.70;;;;;7.00;100121.00;;;;9809406;30;20229;-82
2023/04/22 05:26:30;;;;;;;53.37;31.57;;;;;7.10;100116.00;;;;9802302;30;20237;-81
2023/04/22 05:31:33;;;;;;;52.77;33.27;;;;;7.20;100133.00;;;;9839547;30;20231;-81
2023/04/22 05:36:36;;;;;;;55.60;33.03;;;;;7.40;100124.00;;;;9869074;30;20235;-81
2023/04/22 05:41:38;;;;;;;50.97;32.50;;;;;7.60;100119.00;;;;9791149;30;20332;-81
2023/04/22 05:46:44;;;;;;;47.17;31.13;;;;;7.70;100109.00;;;;9826006;30;20227;-82
2023/04/22 05:51:47;;;;;;;48.67;30.23;;;;;7.90;100119.00;;;;9816223;30;20423;-81
2023/04/22 05:56:52;;;;;;;56.20;33.27;;;;;8.20;100145.00;;;;9848087;30;20228;-81
2023/04/22 06:01:54;;;;;;;49.43;31.67;;;;;8.60;100150.00;;;;9848599;30;20277;-81
2023/04/22 06:06:56;;;;;;;51.50;32.50;;;;;9.00;100130.00;;;;9848963;30;20659;-82
2023/04/22 06:11:59;;;;;;;52.73;33.33;;;;;9.60;100124.00;;;;9817765;30;20303;-81
2023/04/22 06:17:02;;;;;;;52.73;34.50;;;;;10.10;100114.00;;;;9834303;30;20282;-82
2023/04/22 06:22:04;;;;;;;48.20;32.60;;;;;10.10;100120.00;;;;9848576;30;20271;-82
2023/04/22 06:27:06;;;;;;;46.30;32.13;;;;;10.10;100146.00;;;;9823083;30;20245;-81
2023/04/22 06:32:08;;;;;;;43.83;30.80;;;;;10.40;100125.00;;;;9824663;30;20281;-81
2023/04/22 06:37:10;;;;;;;53.30;33.47;;;;;10.70;100115.00;;;;9855098;30;20591;-81
2023/04/22 06:42:13;;;;;;;45.67;30.77;;;;;10.90;100097.00;;;;9839421;30;20237;-81
2023/04/22 06:47:31;;;;;;;41.47;28.73;;;;;11.10;100110.00;;;;9861888;30;20248;-80
2023/04/22 06:52:39;;;;;;;41.70;28.60;;;;;11.20;100096.00;;;;9863813;30;20235;-80
2023/04/22 06:57:41;;;;;;;36.80;28.40;;;;;11.30;100106.00;;;;9809993;30;20328;-80
2023/04/22 07:02:43;;;;;;;36.53;25.67;;;;;11.30;100122.00;;;;9854047;30;20233;-82
2023/04/22 07:07:46;;;;;;;35.97;26.80;;;;;11.20;100114.00;;;;9850015;30;20649;-82
2023/04/22 07:12:53;;;;;;;32.97;24.97;;;;;11.20;100108.00;;;;9829669;30;20228;-81
2023/04/22 07:17:55;;;;;;;39.43;27.63;;;;;11.80;100094.00;;;;9836328;30;20236;-81
2023/04/22 07:22:57;;;;;;;37.30;26.87;;;;;12.30;100091.00;;;;9854833;30;20290;-80
2023/04/22 07:27:59;;;;;;;30.93;24.10;;;;;12.60;100080.00;;;;9838121;30;20923;-82
2023/04/22 07:33:01;;;;;;;29.47;23.07;;;;;12.60;100061.00;;;;9867350;30;20228;-82
2023/04/22 07:38:03;;;;;;;30.73;24.07;;;;;12.40;100060.00;;;;9850929;30;20305;-82
2023/04/22 07:43:05;;;;;;;29.57;23.20;;;;;12.40;100047.00;;;;9825097;30;20682;-81
2023/04/22 07:48:07;;;;;;;27.67;21.80;;;;;12.30;99995.00;;;;9837008;30;20228;-81
2023/04/22 07:53:09;;;;;;;25.17;18.80;;;;;12.30;100017.00;;;;9838139;30;20225;-81
2023/04/22 07:58:11;;;;;;;24.60;19.57;;;;;12.60;100020.00;;;;9836845;30;20271;-81
2023/04/22 08:03:13;;;;;;;25.23;20.00;;;;;13.20;100028.00;;;;9856809;30;20328;-83
2023/04/22 08:08:17;;;;;;;24.40;18.90;;;;;13.90;100038.00;;;;9832865;29;20220;-83
2023/04/22 08:13:19;;;;;;;22.93;18.23;;;;;14.70;100061.00;;;;9852970;30;20288;-83
2023/04/22 08:18:21;;;;;;;23.23;17.63;;;;;15.80;100069.00;;;;9839111;30;20320;-83
2023/04/22 08:23:24;;;;;;;17.87;15.13;;;;;16.50;100074.00;;;;9817879;30;20235;-83
2023/04/22 08:28:26;;;;;;;16.75;15.02;;;;;17.30;100090.00;;;;9838182;30;20459;-83
2023/04/22 08:33:29;;;;;;;19.73;16.35;;;;;16.90;100070.00;;;;9834676;30;20233;-82
2023/04/22 08:38:31;;;;;;;15.85;14.15;;;;;17.60;100069.00;;;;9870399;30;20244;-83
2023/04/22 08:43:33;;;;;;;14.55;12.40;;;;;17.50;100067.00;;;;9846380;30;20224;-83
2023/04/22 08:48:35;;;;;;;13.07;9.80;;;;;17.50;100046.00;;;;9880890;30;20236;-83
2023/04/22 08:53:38;;;;;;;11.50;10.15;;;;;17.90;100033.00;;;;9887910;30;20228;-83
2023/04/22 08:58:41;;;;;;;9.70;8.70;;;;;17.20;100042.00;;;;9882356;30;20303;-83
2023/04/22 09:03:43;;;;;;;10.38;9.05;;;;;17.00;100032.00;;;;9860409;30;20232;-84
2023/04/22 09:08:46;;;;;;;9.75;8.05;;;;;16.90;100017.00;;;;9845021;30;20693;-83
2023/04/22 09:13:48;;;;;;;8.80;7.88;;;;;16.90;100021.00;;;;9828205;30;20299;-83
2023/04/22 09:18:50;;;;;;;11.10;8.90;;;;;17.00;100004.00;;;;9853820;30;20306;-84
2023/04/22 09:23:54;;;;;;;10.00;8.98;;;;;16.80;99996.00;;;;9867710;30;20337;-84
2023/04/22 09:28:58;;;;;;;9.18;8.27;;;;;16.00;100015.00;;;;9836446;30;20224;-83
2023/04/22 09:34:01;;;;;;;9.45;8.52;;;;;15.90;100030.00;;;;9859069;30;20759;-83
2023/04/22 09:39:06;;;;;;;11.02;9.05;;;;;15.80;100037.00;;;;9829713;30;20530;-84
2023/04/22 09:44:16;;;;;;;10.27;9.23;;;;;15.30;100017.00;;;;9851849;30;20240;-84
2023/04/22 09:49:19;;;;;;;10.93;9.82;;;;;14.70;100032.00;;;;9840595;30;20228;-86
2023/04/22 09:54:22;;;;;;;13.67;10.47;;;;;14.50;100033.00;;;;9846162;30;20513;-87
2023/04/22 09:59:29;;;;;;;12.73;10.27;;;;;14.00;100043.00;;;;9845422;29;20580;-87
2023/04/22 10:04:31;;;;;;;11.83;10.47;;;;;13.90;100051.00;;;;9834025;30;20236;-88
2023/04/22 10:09:33;;;;;;;12.33;10.67;;;;;13.80;100050.00;;;;9861768;30;20231;-88
2023/04/22 10:14:35;;;;;;;14.93;11.27;;;;;13.50;100074.00;;;;9857613;30;20211;-86
2023/04/22 10:19:38;;;;;;;13.67;10.77;;;;;13.20;100076.00;;;;9876880;30;20221;-89
2023/04/22 10:24:42;;;;;;;15.27;12.77;;;;;13.20;100064.00;;;;9842358;30;20619;-89
2023/04/22 10:29:44;;;;;;;15.37;12.37;;;;;13.50;100058.00;;;;9839612;30;20680;-88
2023/04/22 10:34:48;;;;;;;14.20;12.50;;;;;13.70;100055.00;;;;9858801;30;20232;-86
2023/04/22 10:40:15;;;;;;;18.23;13.10;;;;;13.60;100061.00;;;;9861534;30;20236;-87
2023/04/22 10:45:22;;;;;;;18.23;13.80;;;;;13.70;100048.00;;;;9831016;30;20244;-88
2023/04/22 10:50:26;;;;;;;17.90;14.60;;;;;14.00;100063.00;;;;9861337;30;20248;-85
2023/04/22 10:55:51;;;;;;;22.67;15.93;;;;;13.80;100064.00;;;;9846437;30;20300;-86
2023/04/22 11:01:01;;;;;;;17.97;14.27;;;;;14.00;100060.00;;;;9845690;30;20240;-89
2023/04/22 11:06:18;;;;;;;18.13;14.13;;;;;14.10;100056.00;;;;9857427;30;20236;-89
2023/04/22 11:11:20;;;;;;;16.40;14.50;;;;;14.20;100059.00;;;;9832716;30;20289;-89
2023/04/22 11:16:22;;;;;;;18.30;14.37;;;;;14.70;100044.00;;;;9836521;30;20473;-89
2023/04/22 11:21:25;;;;;;;19.73;15.43;;;;;14.90;100045.00;;;;9855396;30;20236;-87
2023/04/22 11:26:34;;;;;;;16.93;15.07;;;;;15.00;100060.00;;;;9848780;30;20264;-88
2023/04/22 11:31:36;;;;;;;16.00;13.93;;;;;14.70;100063.00;;;;9849679;30;20228;-87
2023/04/22 11:36:44;;;;;;;15.97;12.87;;;;;14.10;100076.00;;;;9880707;30;20289;-86
2023/04/22 11:41:46;;;;;;;16.43;13.67;;;;;13.80;100079.00;;;;9831296;30;20233;-86
2023/04/22 11:46:48;;;;;;;18.43;14.70;;;;;13.80;100087.00;;;;9867234;30;20943;-85
2023/04/22 11:51:55;;;;;;;22.07;15.37;;;;;13.40;100079.00;;;;9849959;30;20236;-85
2023/04/22 11:57:01;;;;;;;19.27;16.17;;;;;13.10;100087.00;;;;9861356;30;20240;-86
2023/04/22 12:02:07;;;;;;;21.10;16.80;;;;;13.00;100087.00;;;;9847206;30;20224;-86
2023/04/22 12:07:09;;;;;;;22.57;17.27;;;;;12.80;100099.00;;;;9833486;30;20327;-85
2023/04/22 12:12:11;;;;;;;25.80;19.43;;;;;12.70;100091.00;;;;9829912;30;20236;-86
2023/04/22 12:17:15;;;;;;;22.63;19.13;;;;;12.60;100104.00;;;;9868712;30;20762;-85
2023/04/22 12:22:28;;;;;;;32.57;24.23;;;;;12.30;100098.00;;;;9859759;30;20213;-87
2023/04/22 12:27:30;;;;;;;32.70;25.47;;;;;12.10;100094.00;;;;9839098;30;20335;-86
2023/04/22 12:32:33;;;;;;;33.17;25.37;;;;;12.20;100108.00;;;;9842939;30;20219;-85
2023/04/22 12:37:35;;;;;;;41.03;29.30;;;;;12.20;100109.00;;;;9907945;30;20220;-85
2023/04/22 12:42:37;;;;;;;39.37;27.90;;;;;12.30;100094.00;;;;9851151;30;20220;-85
2023/04/22 12:47:54;;;;;;;40.97;29.73;;;;;12.50;100098.00;;;;10767226;27;20398;-84
2023/04/22 12:52:56;;;;;;;39.60;30.30;;;;;12.90;100093.00;;;;10649050;27;20203;-85
2023/04/22 12:57:58;;;;;;;42.60;30.93;;;;;12.90;100103.00;;;;10617466;27;20217;-83
2023/04/22 13:02:59;;;;;;;39.37;29.37;;;;;13.00;100102.00;;;;10626631;27;20214;-86
2023/04/22 13:08:01;;;;;;;38.93;28.90;;;;;13.10;100109.00;;;;10636413;27;20219;-85
2023/04/22 13:13:09;;;;;;;46.87;33.27;;;;;13.20;100100.00;;;;10646701;27;20430;-84
2023/04/22 13:18:21;;;;;;;42.47;31.60;;;;;13.00;100100.00;;;;10665035;27;20206;-84
2023/04/22 13:23:24;;;;;;;46.60;34.03;;;;;12.80;100099.00;;;;10662533;27;20250;-83
2023/04/22 13:28:26;;;;;;;44.17;31.30;;;;;12.60;100095.00;;;;10659227;27;20196;-83
2023/04/22 13:33:28;;;;;;;42.30;30.87;;;;;12.30;100100.00;;;;10659517;27;20691;-85
2023/04/22 13:38:29;;;;;;;43.77;33.27;;;;;12.20;100103.00;;;;10677355;27;20214;-82
2023/04/22 13:43:30;;;;;;;39.27;29.53;;;;;12.30;100103.00;;;;10699430;27;20235;-81
2023/04/22 13:48:32;;;;;;;42.03;29.97;;;;;12.20;100099.00;;;;10633752;27;20195;-82
2023/04/22 13:53:33;;;;;;;38.80;28.67;;;;;12.50;100099.00;;;;10665598;27;20225;-81
2023/04/22 13:58:35;;;;;;;42.40;30.27;;;;;12.10;100101.00;;;;10628697;28;20230;-81
2023/04/22 14:03:37;;;;;;;40.17;28.90;;;;;12.10;100106.00;;;;10610755;28;20214;-81
2023/04/22 14:08:39;;;;;;;42.47;29.93;;;;;11.90;100110.00;;;;10654205;27;20191;-81
2023/04/22 14:13:41;;;;;;;43.17;31.20;;;;;12.10;100100.00;;;;10680456;27;20191;-81
2023/04/22 14:18:44;;;;;;;40.97;29.67;;;;;12.00;100106.00;;;;10634198;27;20200;-82
2023/04/22 14:23:45;;;;;;;43.47;30.97;;;;;11.80;100106.00;;;;10567764;28;20455;-81
2023/04/22 14:28:47;;;;;;;44.23;31.73;;;;;11.70;100121.00;;;;10622249;28;20231;-81
2023/04/22 14:33:48;;;;;;;41.27;29.07;;;;;11.70;100127.00;;;;10594628;28;20207;-81
2023/04/22 14:38:49;;;;;;;38.97;28.50;;;;;11.70;100130.00;;;;10578327;28;20208;-83
2023/04/22 14:43:51;;;;;;;44.93;32.43;;;;;11.50;100146.00;;;;10597362;28;20405;-81
2023/04/22 14:48:52;;;;;;;31.87;24.30;;;;;11.40;100150.00;;;;10554634;27;20208;-84
2023/04/22 14:53:53;;;;;;;29.90;22.57;;;;;11.40;100147.00;;;;10647563;27;20218;-82
2023/04/22 14:58:55;;;;;;;33.10;24.30;;;;;11.60;100148.00;;;;10570941;28;20216;-82
2023/04/22 15:03:56;;;;;;;26.73;21.17;;;;;11.90;100141.00;;;;10589262;28;20230;-83
2023/04/22 15:08:58;;;;;;;28.00;21.70;;;;;12.20;100155.00;;;;10647518;27;20203;-84
2023/04/22 15:13:59;;;;;;;27.93;22.37;;;;;12.60;100154.00;;;;10575347;27;20631;-82
2023/04/22 15:19:00;;;;;;;32.17;23.23;;;;;12.90;100163.00;;;;10595634;28;20227;-82
2023/04/22 15:24:02;;;;;;;27.00;20.20;;;;;13.10;100165.00;;;;10569099;28;20231;-83
2023/04/22 15:29:03;;;;;;;23.07;18.63;;;;;13.20;100160.00;;;;10610967;28;20207;-84
2023/04/22 15:34:04;;;;;;;26.63;21.23;;;;;12.60;100155.00;;;;10639514;28;20215;-84
2023/04/22 15:39:09;;;;;;;25.47;22.03;;;;;12.20;100157.00;;;;10607086;27;20210;-82
2023/04/22 15:44:10;;;;;;;26.73;20.47;;;;;11.90;100182.00;;;;10582553;28;20330;-82
2023/04/22 15:49:13;;;;;;;30.13;23.37;;;;;11.80;100182.00;;;;10535504;28;20219;-85
2023/04/22 15:54:14;;;;;;;30.20;22.97;;;;;11.80;100184.00;;;;10535711;28;20220;-84
2023/04/22 15:59:16;;;;;;;35.20;24.17;;;;;12.00;100187.00;;;;10567747;28;20307;-84
2023/04/22 16:04:18;;;;;;;33.97;25.80;;;;;12.20;100187.00;;;;10565115;28;20680;-84
2023/04/22 16:09:19;;;;;;;24.27;18.70;;;;;12.20;100198.00;;;;10578521;28;20253;-84
2023/04/22 16:14:21;;;;;;;27.87;20.87;;;;;13.20;100188.00;;;;10552622;27;20628;-83
2023/04/22 16:19:22;;;;;;;22.97;17.67;;;;;13.20;100197.00;;;;10559608;27;20243;-84
2023/04/22 16:24:24;;;;;;;21.10;17.10;;;;;12.80;100218.00;;;;10519341;28;20231;-84
2023/04/22 16:29:25;;;;;;;23.97;17.53;;;;;12.80;100214.00;;;;10563005;28;20238;-84
2023/04/22 16:34:26;;;;;;;23.33;18.20;;;;;12.50;100233.00;;;;10577825;28;20234;-84
2023/04/22 16:39:29;;;;;;;26.97;19.03;;;;;12.40;100225.00;;;;10578307;28;20196;-84
2023/04/22 16:44:30;;;;;;;21.27;17.23;;;;;12.10;100222.00;;;;10569456;28;20855;-81
2023/04/22 16:49:31;;;;;;;21.90;15.83;;;;;11.90;100230.00;;;;10583493;28;20223;-83
2023/04/22 16:54:33;;;;;;;18.70;15.60;;;;;11.70;100242.00;;;;10590442;28;20207;-84
2023/04/22 16:59:34;;;;;;;24.50;16.87;;;;;11.70;100237.00;;;;10568888;28;20199;-83
2023/04/22 17:04:36;;;;;;;18.37;14.83;;;;;11.60;100248.00;;;;10575860;28;20215;-84
2023/04/22 17:09:37;;;;;;;19.20;15.20;;;;;11.70;100250.00;;;;10638768;27;20198;-84
2023/04/22 17:14:39;;;;;;;18.13;14.93;;;;;12.00;100231.00;;;;10564906;28;20851;-83
2023/04/22 17:19:42;;;;;;;21.00;15.17;;;;;12.20;100232.00;;;;10626210;28;20202;-83
2023/04/22 17:24:44;;;;;;;17.23;13.93;;;;;11.90;100229.00;;;;10549804;27;20658;-84
2023/04/22 17:29:45;;;;;;;19.27;15.13;;;;;11.70;100241.00;;;;10587383;28;20227;-83
2023/04/22 17:34:47;;;;;;;19.57;15.43;;;;;11.40;100250.00;;;;10608868;28;20191;-83
2023/04/22 17:39:48;;;;;;;24.00;16.43;;;;;11.30;100244.00;;;;10617777;27;20219;-84
2023/04/22 17:44:49;;;;;;;24.37;16.27;;;;;11.30;100234.00;;;;10563901;28;20260;-84
2023/04/22 17:49:51;;;;;;;20.93;15.30;;;;;11.20;100235.00;;;;10589298;27;20211;-84
2023/04/22 17:54:52;;;;;;;22.03;15.33;;;;;11.10;100245.00;;;;10585074;28;20212;-83
2023/04/22 17:59:53;;;;;;;20.17;15.93;;;;;10.80;100240.00;;;;10543670;28;20227;-84
2023/04/22 18:04:55;;;;;;;20.73;16.83;;;;;10.60;100240.00;;;;10539115;28;20231;-84
2023/04/22 18:09:56;;;;;;;20.90;16.07;;;;;10.40;100244.00;;;;10566795;28;20721;-83
2023/04/22 18:14:57;;;;;;;22.17;16.80;;;;;10.20;100237.00;;;;10607713;27;20218;-84
2023/04/22 18:19:59;;;;;;;27.10;17.33;;;;;10.10;100250.00;;;;10569566;28;20212;-84
2023/04/22 18:25:18;;;;;;;22.73;17.07;;;;;9.90;100267.00;;;;10581063;28;20218;-84
2023/04/22 18:30:21;;;;;;;22.63;16.90;;;;;9.80;100264.00;;;;10543555;28;20281;-83
2023/04/22 18:35:22;;;;;;;24.30;17.97;;;;;9.60;100254.00;;;;10550819;28;20211;-84
2023/04/22 18:40:23;;;;;;;26.37;18.27;;;;;9.50;100268.00;;;;10578006;28;20223;-84
2023/04/22 18:45:25;;;;;;;23.97;17.43;;;;;9.40;100271.00;;;;10584763;28;20245;-84
2023/04/22 18:50:26;;;;;;;24.33;18.43;;;;;9.30;100269.00;;;;10588966;28;20204;-83
2023/04/22 18:55:27;;;;;;;23.73;18.17;;;;;9.20;100281.00;;;;10540633;28;20218;-83
2023/04/22 19:00:29;;;;;;;25.00;18.60;;;;;9.10;100284.00;;;;10592977;28;20239;-83
2023/04/22 19:05:31;;;;;;;25.73;19.40;;;;;9.00;100278.00;;;;10535960;28;20235;-83
2023/04/22 19:10:32;;;;;;;25.73;19.47;;;;;8.90;100278.00;;;;10576377;28;20740;-83
2023/04/22 19:15:33;;;;;;;27.20;20.00;;;;;8.90;100269.00;;;;10594241;28;20215;-84
2023/04/22 19:20:35;;;;;;;27.80;19.37;;;;;8.80;100281.00;;;;10536467;28;20208;-83
2023/04/22 19:25:37;;;;;;;26.60;20.37;;;;;8.80;100285.00;;;;10578696;28;20264;-83
2023/04/22 19:30:39;;;;;;;27.87;21.80;;;;;8.70;100272.00;;;;10588613;27;20208;-84
2023/04/22 19:35:40;;;;;;;29.90;22.87;;;;;8.70;100282.00;;;;10586253;28;20200;-83
2023/04/22 19:40:41;;;;;;;33.73;24.33;;;;;8.70;100283.00;;;;10554437;28;20582;-83
2023/04/22 19:45:43;;;;;;;33.13;25.13;;;;;8.60;100278.00;;;;10541906;28;20577;-83
2023/04/22 19:50:44;;;;;;;36.87;25.37;;;;;8.60;100287.00;;;;10569080;28;20219;-83
2023/04/22 19:55:46;;;;;;;37.60;27.73;;;;;8.60;100276.00;;;;10538170;28;20330;-83
2023/04/22 20:00:48;;;;;;;41.37;27.50;;;;;8.60;100272.00;;;;10552930;28;20231;-83
2023/04/22 20:05:50;;;;;;;39.13;27.57;;;;;8.60;100288.00;;;;10533667;28;20228;-83
2023/04/22 20:10:53;;;;;;;41.80;28.67;;;;;8.60;100290.00;;;;10533242;28;20223;-84
2023/04/22 20:15:55;;;;;;;45.00;30.20;;;;;8.50;100295.00;;;;10602072;28;20268;-83
2023/04/22 20:20:57;;;;;;;44.03;28.80;;;;;8.50;100298.00;;;;10590003;28;20211;-84
2023/04/22 20:25:59;;;;;;;45.03;29.53;;;;;8.50;100295.00;;;;10599752;28;20375;-83
2023/04/22 20:31:01;;;;;;;40.70;28.33;;;;;8.50;100281.00;;;;10592603;28;20210;-83
2023/04/22 20:36:04;;;;;;;41.97;29.07;;;;;8.50;100281.00;;;;10590704;28;20204;-83
2023/04/22 20:41:07;;;;;;;41.07;28.83;;;;;8.50;100270.00;;;;10572913;27;20239;-83
2023/04/22 20:46:08;;;;;;;40.40;28.40;;;;;8.50;100258.00;;;;10555166;28;20224;-83
2023/04/22 20:51:11;;;;;;;43.50;30.07;;;;;8.50;100251.00;;;;10556653;28;20210;-84
2023/04/22 20:56:12;;;;;;;39.60;27.93;;;;;8.50;100254.00;;;;10520628;28;20297;-83
2023/04/22 21:01:18;;;;;;;39.53;28.33;;;;;8.50;100247.00;;;;10568616;28;20208;-83
2023/04/22 21:06:20;;;;;;;42.47;29.33;;;;;8.40;100250.00;;;;10561984;28;20261;-83
2023/04/22 21:11:21;;;;;;;41.10;30.57;;;;;8.40;100250.00;;;;10543080;28;20219;-83
2023/04/22 21:16:28;;;;;;;40.27;29.07;;;;;8.40;100235.00;;;;10577224;28;20207;-83
2023/04/22 21:21:32;;;;;;;47.63;29.13;;;;;8.40;100233.00;;;;10590763;28;20435;-83
2023/04/22 21:26:36;;;;;;;40.43;29.27;;;;;8.40;100227.00;;;;10589160;28;20709;-83
2023/04/22 21:31:37;;;;;;;35.83;25.70;;;;;8.40;100237.00;;;;10555821;28;20208;-83
2023/04/22 21:36:39;;;;;;;36.77;25.27;;;;;8.30;100238.00;;;;10574870;27;20435;-83
2023/04/22 21:41:40;;;;;;;37.70;26.73;;;;;8.30;100247.00;;;;10567888;28;20215;-83
2023/04/22 21:46:44;;;;;;;34.20;24.27;;;;;8.40;100250.00;;;;10565568;28;20234;-84
2023/04/22 21:51:45;;;;;;;40.37;25.83;;;;;8.40;100250.00;;;;10568621;27;20199;-83
2023/04/22 21:56:46;;;;;;;36.53;25.73;;;;;8.40;100249.00;;;;10577760;28;20400;-83
2023/04/22 22:01:48;;;;;;;36.90;25.30;;;;;8.40;100253.00;;;;10575572;28;20206;-83
2023/04/22 22:06:50;;;;;;;35.13;26.17;;;;;8.50;100254.00;;;;10582900;27;20561;-83
2023/04/22 22:11:51;;;;;;;33.77;25.30;;;;;8.50;100259.00;;;;10588891;28;20220;-84
2023/04/22 22:16:53;;;;;;;31.80;24.27;;;;;8.50;100244.00;;;;10541141;28;20214;-83
2023/04/22 22:21:55;;;;;;;33.23;23.43;;;;;8.50;100243.00;;;;10581708;27;20211;-83
2023/04/22 22:26:56;;;;;;;36.00;24.80;;;;;8.40;100232.00;;;;10610573;28;20240;-84
2023/04/22 22:31:58;;;;;;;29.80;23.03;;;;;8.40;100227.00;;;;10583951;28;20219;-83
2023/04/22 22:36:59;;;;;;;34.57;25.50;;;;;8.30;100228.00;;;;10584787;28;20321;-83
2023/04/22 22:42:01;;;;;;;35.73;26.03;;;;;8.20;100214.00;;;;10545963;28;20219;-83
2023/04/22 22:47:02;;;;;;;36.90;24.80;;;;;8.10;100221.00;;;;10576895;28;20554;-83
2023/04/22 22:52:03;;;;;;;35.27;25.30;;;;;8.10;100216.00;;;;10580708;27;20223;-83
2023/04/22 22:57:05;;;;;;;39.27;25.57;;;;;8.10;100215.00;;;;10566948;28;20222;-83
2023/04/22 23:02:07;;;;;;;39.23;26.47;;;;;8.00;100211.00;;;;10562110;27;20294;-83
2023/04/22 23:07:09;;;;;;;39.43;27.80;;;;;8.00;100202.00;;;;10608088;27;20310;-83
2023/04/22 23:12:10;;;;;;;39.77;25.73;;;;;8.00;100202.00;;;;10618319;27;20247;-83
2023/04/22 23:17:12;;;;;;;38.13;25.43;;;;;8.10;100197.00;;;;10573671;28;20550;-83
2023/04/22 23:22:13;;;;;;;38.80;26.57;;;;;8.10;100197.00;;;;10558684;28;20211;-83
2023/04/22 23:27:16;;;;;;;43.73;28.47;;;;;8.20;100201.00;;;;10541141;27;20321;-83
2023/04/22 23:32:18;;;;;;;39.20;26.03;;;;;8.20;100194.00;;;;10563381;27;20340;-83
2023/04/22 23:37:22;;;;;;;34.80;25.33;;;;;8.20;100181.00;;;;10600446;28;20219;-83
2023/04/22 23:42:23;;;;;;;37.67;25.43;;;;;8.20;100180.00;;;;10594776;28;20257;-83
2023/04/22 23:47:24;;;;;;;38.53;25.13;;;;;8.20;100161.00;;;;10575504;28;20223;-83
2023/04/22 23:52:26;;;;;;;35.20;25.80;;;;;8.20;100168.00;;;;10581354;28;20614;-83
2023/04/22 23:57:27;;;;;;;32.67;24.40;;;;;8.10;100151.00;;;;10573670;28;20942;-83
